Terminal Aerodrome Forecast
Issued by NWS

Home | Current Version | Previous Version | Text Only | Print | Product List | Glossary On
Versions: 1 2 3 4 5 6 7 8 9 10 11 12 13 14
000
FTUS42 KGSP 191120
TAFGMU
TAF
KGMU 191120Z 1912/2012 02010KT P6SM FEW250
     FM191900 05003KT P6SM SCT250
     FM200000 03003KT P6SM FEW070 BKN250
     FM200500 00000KT P6SM -RA OVC070=

USA.gov is the U.S. government's official web portal to all federal, state and local government web resources and services.